sensor_id;sensor_type;location;lat;lon;timestamp;P1;durP1;ratioP1;P2;durP2;ratioP2
74483;SDS011;62942;52.462;10.846;2023-02-01T00:00:47;3.6;;;17.1;;
74483;SDS011;62942;52.462;10.846;2023-02-01T00:01:47;3.3;;;16.4;;
74483;SDS011;62942;52.462;10.846;2023-02-01T00:02:47;3.4;;;16.6;;
74483;SDS011;62942;52.462;10.846;2023-02-01T00:03:57;3.3;;;17.8;;
74483;SDS011;62942;52.462;10.846;2023-02-01T00:04:57;3.6;;;20.1;;
74483;SDS011;62942;52.462;10.846;2023-02-01T00:06:07;4;;;20.2;;
74483;SDS011;62942;52.462;10.846;2023-02-01T00:07:07;3.7;;;18.3;;
74483;SDS011;62942;52.462;10.846;2023-02-01T00:08:17;3.5;;;16.5;;
74483;SDS011;62942;52.462;10.846;2023-02-01T00:09:17;3.2;;;15.9;;
74483;SDS011;62942;52.462;10.846;2023-02-01T00:10:27;3.7;;;19.7;;
74483;SDS011;62942;52.462;10.846;2023-02-01T00:11:27;3.4;;;18.8;;
74483;SDS011;62942;52.462;10.846;2023-02-01T00:12:37;3.5;;;18.5;;
74483;SDS011;62942;52.462;10.846;2023-02-01T00:13:46;3.5;;;19.8;;
74483;SDS011;62942;52.462;10.846;2023-02-01T00:14:46;3.5;;;15.7;;
74483;SDS011;62942;52.462;10.846;2023-02-01T00:15:47;3.9;;;20.2;;
74483;SDS011;62942;52.462;10.846;2023-02-01T00:16:57;3.4;;;17.4;;
74483;SDS011;62942;52.462;10.846;2023-02-01T00:18:07;3.9;;;21.3;;
74483;SDS011;62942;52.462;10.846;2023-02-01T00:19:07;3.7;;;19.4;;
74483;SDS011;62942;52.462;10.846;2023-02-01T00:20:17;4.1;;;22.1;;
74483;SDS011;62942;52.462;10.846;2023-02-01T00:21:27;3.3;;;17.5;;
74483;SDS011;62942;52.462;10.846;2023-02-01T00:22:37;3.6;;;20.3;;
74483;SDS011;62942;52.462;10.846;2023-02-01T00:23:37;3.8;;;17.1;;
74483;SDS011;62942;52.462;10.846;2023-02-01T00:24:47;3.8;;;19.6;;
74483;SDS011;62942;52.462;10.846;2023-02-01T00:25:47;3.4;;;17.6;;
74483;SDS011;62942;52.462;10.846;2023-02-01T00:26:57;3.7;;;19.3;;
74483;SDS011;62942;52.462;10.846;2023-02-01T00:27:57;3.7;;;16.5;;
74483;SDS011;62942;52.462;10.846;2023-02-01T00:29:09;3.4;;;16.2;;
74483;SDS011;62942;52.462;10.846;2023-02-01T00:30:07;4.1;;;19.4;;
74483;SDS011;62942;52.462;10.846;2023-02-01T00:31:17;3.7;;;18.7;;
74483;SDS011;62942;52.462;10.846;2023-02-01T00:32:26;3.4;;;17.5;;
74483;SDS011;62942;52.462;10.846;2023-02-01T00:33:27;3.6;;;19.8;;
74483;SDS011;62942;52.462;10.846;2023-02-01T00:34:27;3.5;;;19.8;;
74483;SDS011;62942;52.462;10.846;2023-02-01T00:35:27;3.5;;;15.2;;
74483;SDS011;62942;52.462;10.846;2023-02-01T00:36:36;3.4;;;16.4;;
74483;SDS011;62942;52.462;10.846;2023-02-01T00:37:37;3.8;;;17.2;;
74483;SDS011;62942;52.462;10.846;2023-02-01T00:38:37;3.7;;;19.4;;
74483;SDS011;62942;52.462;10.846;2023-02-01T00:39:37;3.3;;;17.2;;
74483;SDS011;62942;52.462;10.846;2023-02-01T00:40:46;3.9;;;20.5;;
74483;SDS011;62942;52.462;10.846;2023-02-01T00:41:47;3.6;;;18.1;;
74483;SDS011;62942;52.462;10.846;2023-02-01T00:42:57;3.6;;;21.4;;
74483;SDS011;62942;52.462;10.846;2023-02-01T00:44:07;3.6;;;18.3;;
74483;SDS011;62942;52.462;10.846;2023-02-01T00:45:17;3.5;;;17.9;;
74483;SDS011;62942;52.462;10.846;2023-02-01T00:46:17;3.6;;;18.3;;
74483;SDS011;62942;52.462;10.846;2023-02-01T00:47:26;3.7;;;18;;
74483;SDS011;62942;52.462;10.846;2023-02-01T00:48:27;3.7;;;23.1;;
74483;SDS011;62942;52.462;10.846;2023-02-01T00:49:27;3.5;;;18.7;;
74483;SDS011;62942;52.462;10.846;2023-02-01T00:50:26;3.7;;;19.1;;
74483;SDS011;62942;52.462;10.846;2023-02-01T00:51:36;4;;;16.8;;
74483;SDS011;62942;52.462;10.846;2023-02-01T00:52:46;3.3;;;18.3;;
74483;SDS011;62942;52.462;10.846;2023-02-01T00:53:57;3.7;;;17.2;;
74483;SDS011;62942;52.462;10.846;2023-02-01T00:55:07;3.5;;;18.5;;
74483;SDS011;62942;52.462;10.846;2023-02-01T00:56:07;3.7;;;18;;
74483;SDS011;62942;52.462;10.846;2023-02-01T00:57:17;3.6;;;19.4;;
74483;SDS011;62942;52.462;10.846;2023-02-01T00:58:17;3.6;;;18.8;;
74483;SDS011;62942;52.462;10.846;2023-02-01T00:59:26;3.9;;;18.5;;
74483;SDS011;62942;52.462;10.846;2023-02-01T01:00:26;3.5;;;19;;
74483;SDS011;62942;52.462;10.846;2023-02-01T01:01:27;3.8;;;19.3;;
74483;SDS011;62942;52.462;10.846;2023-02-01T01:02:37;3.9;;;19.8;;
74483;SDS011;62942;52.462;10.846;2023-02-01T01:03:47;3.9;;;20.1;;
74483;SDS011;62942;52.462;10.846;2023-02-01T01:04:47;3.7;;;17.4;;
74483;SDS011;62942;52.462;10.846;2023-02-01T01:05:56;4.3;;;19.5;;
74483;SDS011;62942;52.462;10.846;2023-02-01T01:06:56;4.1;;;19.6;;
74483;SDS011;62942;52.462;10.846;2023-02-01T01:08:07;4.2;;;20.5;;
74483;SDS011;62942;52.462;10.846;2023-02-01T01:09:16;4.1;;;18;;
74483;SDS011;62942;52.462;10.846;2023-02-01T01:10:17;4.2;;;21;;
74483;SDS011;62942;52.462;10.846;2023-02-01T01:11:17;4;;;20;;
74483;SDS011;62942;52.462;10.846;2023-02-01T01:12:26;3.5;;;18.7;;
74483;SDS011;62942;52.462;10.846;2023-02-01T01:13:37;3.6;;;17.5;;
74483;SDS011;62942;52.462;10.846;2023-02-01T01:14:47;4.1;;;23.2;;
74483;SDS011;62942;52.462;10.846;2023-02-01T01:15:59;3.8;;;19.3;;
74483;SDS011;62942;52.462;10.846;2023-02-01T01:16:57;4;;;19.1;;
74483;SDS011;62942;52.462;10.846;2023-02-01T01:18:07;3.8;;;19.3;;
74483;SDS011;62942;52.462;10.846;2023-02-01T01:19:06;3.8;;;19.5;;
74483;SDS011;62942;52.462;10.846;2023-02-01T01:20:17;3.8;;;19;;
74483;SDS011;62942;52.462;10.846;2023-02-01T01:21:27;3.6;;;18.7;;
74483;SDS011;62942;52.462;10.846;2023-02-01T01:22:26;4.5;;;21.9;;
74483;SDS011;62942;52.462;10.846;2023-02-01T01:23:36;3.7;;;18;;
74483;SDS011;62942;52.462;10.846;2023-02-01T01:24:46;3.8;;;22.9;;
74483;SDS011;62942;52.462;10.846;2023-02-01T01:25:46;3.7;;;20.1;;
74483;SDS011;62942;52.462;10.846;2023-02-01T01:26:56;4;;;19.7;;
74483;SDS011;62942;52.462;10.846;2023-02-01T01:28:06;3.9;;;19.1;;
74483;SDS011;62942;52.462;10.846;2023-02-01T01:29:08;3.7;;;18;;
74483;SDS011;62942;52.462;10.846;2023-02-01T01:30:16;3.6;;;23.7;;
74483;SDS011;62942;52.462;10.846;2023-02-01T01:31:26;3.7;;;15.7;;
74483;SDS011;62942;52.462;10.846;2023-02-01T01:32:26;4.4;;;21.2;;
74483;SDS011;62942;52.462;10.846;2023-02-01T01:33:36;3.7;;;17;;
74483;SDS011;62942;52.462;10.846;2023-02-01T01:34:46;3.6;;;20.6;;
74483;SDS011;62942;52.462;10.846;2023-02-01T01:35:46;3.6;;;20.7;;
74483;SDS011;62942;52.462;10.846;2023-02-01T01:36:56;3.8;;;21.6;;
74483;SDS011;62942;52.462;10.846;2023-02-01T01:38:07;3.8;;;18.4;;
74483;SDS011;62942;52.462;10.846;2023-02-01T01:39:06;3.9;;;20.5;;
74483;SDS011;62942;52.462;10.846;2023-02-01T01:40:17;3.8;;;19.8;;
74483;SDS011;62942;52.462;10.846;2023-02-01T01:41:28;3.7;;;19.5;;
74483;SDS011;62942;52.462;10.846;2023-02-01T01:42:26;3.7;;;17.4;;
74483;SDS011;62942;52.462;10.846;2023-02-01T01:43:44;3.3;;;19.3;;
74483;SDS011;62942;52.462;10.846;2023-02-01T01:45:16;3.8;;;19.3;;
74483;SDS011;62942;52.462;10.846;2023-02-01T01:45:46;4.1;;;22.7;;
74483;SDS011;62942;52.462;10.846;2023-02-01T01:46:56;3.8;;;17.7;;
74483;SDS011;62942;52.462;10.846;2023-02-01T01:48:07;3.5;;;18;;
74483;SDS011;62942;52.462;10.846;2023-02-01T01:49:07;4.3;;;21.6;;
74483;SDS011;62942;52.462;10.846;2023-02-01T01:50:18;3.6;;;17.3;;
74483;SDS011;62942;52.462;10.846;2023-02-01T01:51:27;3.7;;;18.7;;
74483;SDS011;62942;52.462;10.846;2023-02-01T01:52:26;3.9;;;22.6;;
74483;SDS011;62942;52.462;10.846;2023-02-01T01:53:38;3.5;;;18.9;;
74483;SDS011;62942;52.462;10.846;2023-02-01T01:54:47;4.1;;;20.4;;
74483;SDS011;62942;52.462;10.846;2023-02-01T01:55:46;3.8;;;19.6;;
74483;SDS011;62942;52.462;10.846;2023-02-01T01:56:57;4.4;;;21.9;;
74483;SDS011;62942;52.462;10.846;2023-02-01T01:57:57;3.9;;;18.4;;
74483;SDS011;62942;52.462;10.846;2023-02-01T01:59:06;4.3;;;21.3;;
74483;SDS011;62942;52.462;10.846;2023-02-01T02:00:18;3.6;;;18.8;;
74483;SDS011;62942;52.462;10.846;2023-02-01T02:01:16;3.8;;;19.6;;
74483;SDS011;62942;52.462;10.846;2023-02-01T02:02:26;4;;;20.8;;
74483;SDS011;62942;52.462;10.846;2023-02-01T02:03:27;4;;;21;;
74483;SDS011;62942;52.462;10.846;2023-02-01T02:04:36;3.9;;;20;;
74483;SDS011;62942;52.462;10.846;2023-02-01T02:05:47;4;;;19.5;;
74483;SDS011;62942;52.462;10.846;2023-02-01T02:06:47;3.7;;;22.3;;
74483;SDS011;62942;52.462;10.846;2023-02-01T02:07:48;4.2;;;24.8;;
74483;SDS011;62942;52.462;10.846;2023-02-01T02:08:56;3.6;;;19.1;;
74483;SDS011;62942;52.462;10.846;2023-02-01T02:09:56;3.7;;;18.3;;
74483;SDS011;62942;52.462;10.846;2023-02-01T02:11:06;3.5;;;16.9;;
74483;SDS011;62942;52.462;10.846;2023-02-01T02:12:06;3.6;;;17.5;;
74483;SDS011;62942;52.462;10.846;2023-02-01T02:13:06;4.1;;;20.3;;
74483;SDS011;62942;52.462;10.846;2023-02-01T02:14:17;3.8;;;19.1;;
74483;SDS011;62942;52.462;10.846;2023-02-01T02:15:26;4.3;;;19.8;;
74483;SDS011;62942;52.462;10.846;2023-02-01T02:16:31;3.9;;;19.7;;
74483;SDS011;62942;52.462;10.846;2023-02-01T02:17:38;3.9;;;20.8;;
74483;SDS011;62942;52.462;10.846;2023-02-01T02:18:49;3.6;;;17;;
74483;SDS011;62942;52.462;10.846;2023-02-01T02:20:10;3.5;;;18.7;;
74483;SDS011;62942;52.462;10.846;2023-02-01T02:20:52;4.1;;;20.7;;
74483;SDS011;62942;52.462;10.846;2023-02-01T02:22:03;3.7;;;19.6;;
74483;SDS011;62942;52.462;10.846;2023-02-01T02:23:03;4;;;20.7;;
74483;SDS011;62942;52.462;10.846;2023-02-01T02:24:18;3.7;;;15.5;;
74483;SDS011;62942;52.462;10.846;2023-02-01T02:25:18;4.2;;;23.2;;
74483;SDS011;62942;52.462;10.846;2023-02-01T02:26:24;4;;;18;;
74483;SDS011;62942;52.462;10.846;2023-02-01T02:27:18;4.4;;;21.2;;
74483;SDS011;62942;52.462;10.846;2023-02-01T02:29:40;3.9;;;17.7;;
74483;SDS011;62942;52.462;10.846;2023-02-01T02:30:53;3.7;;;18;;
74483;SDS011;62942;52.462;10.846;2023-02-01T02:31:51;4.4;;;26.3;;
74483;SDS011;62942;52.462;10.846;2023-02-01T02:33:02;4;;;20.5;;
74483;SDS011;62942;52.462;10.846;2023-02-01T02:33:58;4.1;;;21;;
74483;SDS011;62942;52.462;10.846;2023-02-01T02:35:07;3.8;;;21.2;;
74483;SDS011;62942;52.462;10.846;2023-02-01T02:36:07;3.9;;;18.9;;
74483;SDS011;62942;52.462;10.846;2023-02-01T02:37:19;3.9;;;18.5;;
74483;SDS011;62942;52.462;10.846;2023-02-01T02:38:17;4.3;;;21;;
74483;SDS011;62942;52.462;10.846;2023-02-01T02:39:18;3.8;;;20;;
74483;SDS011;62942;52.462;10.846;2023-02-01T02:40:27;3.6;;;16.3;;
74483;SDS011;62942;52.462;10.846;2023-02-01T02:41:27;4.2;;;25.4;;
74483;SDS011;62942;52.462;10.846;2023-02-01T02:42:38;3.6;;;18.6;;
74483;SDS011;62942;52.462;10.846;2023-02-01T02:43:48;3.9;;;18.3;;
74483;SDS011;62942;52.462;10.846;2023-02-01T02:44:57;3.8;;;21.1;;
74483;SDS011;62942;52.462;10.846;2023-02-01T02:46:08;3.9;;;18.8;;
74483;SDS011;62942;52.462;10.846;2023-02-01T02:47:25;4.1;;;22.1;;
74483;SDS011;62942;52.462;10.846;2023-02-01T02:48:27;4.1;;;20.4;;
74483;SDS011;62942;52.462;10.846;2023-02-01T02:49:38;3.6;;;18.1;;
74483;SDS011;62942;52.462;10.846;2023-02-01T02:50:47;3.7;;;20.3;;
74483;SDS011;62942;52.462;10.846;2023-02-01T02:51:58;3.8;;;19;;
74483;SDS011;62942;52.462;10.846;2023-02-01T02:53:07;4.2;;;21.6;;
74483;SDS011;62942;52.462;10.846;2023-02-01T02:54:17;3.9;;;21.2;;
74483;SDS011;62942;52.462;10.846;2023-02-01T02:55:26;3.7;;;19;;
74483;SDS011;62942;52.462;10.846;2023-02-01T02:56:36;4.2;;;22.1;;
74483;SDS011;62942;52.462;10.846;2023-02-01T02:57:46;3.9;;;19.4;;
74483;SDS011;62942;52.462;10.846;2023-02-01T02:58:46;3.8;;;17.9;;
74483;SDS011;62942;52.462;10.846;2023-02-01T02:59:57;3.8;;;20.9;;
74483;SDS011;62942;52.462;10.846;2023-02-01T03:01:06;4.1;;;20.4;;
74483;SDS011;62942;52.462;10.846;2023-02-01T03:02:06;4.2;;;19;;
74483;SDS011;62942;52.462;10.846;2023-02-01T03:03:16;4;;;20.5;;
74483;SDS011;62942;52.462;10.846;2023-02-01T03:04:16;3.7;;;19.6;;
74483;SDS011;62942;52.462;10.846;2023-02-01T03:05:31;3.7;;;20.2;;
74483;SDS011;62942;52.462;10.846;2023-02-01T03:06:37;3.7;;;18.2;;
74483;SDS011;62942;52.462;10.846;2023-02-01T03:08:10;3.7;;;17.1;;
74483;SDS011;62942;52.462;10.846;2023-02-01T03:08:46;3.8;;;20.6;;
74483;SDS011;62942;52.462;10.846;2023-02-01T03:09:46;4.2;;;19.7;;
74483;SDS011;62942;52.462;10.846;2023-02-01T03:10:57;3.9;;;19;;
74483;SDS011;62942;52.462;10.846;2023-02-01T03:12:01;4;;;20.8;;
74483;SDS011;62942;52.462;10.846;2023-02-01T03:13:07;3.8;;;18.1;;
74483;SDS011;62942;52.462;10.846;2023-02-01T03:14:16;4.1;;;22.7;;
74483;SDS011;62942;52.462;10.846;2023-02-01T03:15:28;4;;;20.9;;
74483;SDS011;62942;52.462;10.846;2023-02-01T03:16:39;4.3;;;21.5;;
74483;SDS011;62942;52.462;10.846;2023-02-01T03:17:38;3.7;;;19.3;;
74483;SDS011;62942;52.462;10.846;2023-02-01T03:18:48;3.7;;;19.4;;
74483;SDS011;62942;52.462;10.846;2023-02-01T03:19:46;4;;;21.1;;
74483;SDS011;62942;52.462;10.846;2023-02-01T03:20:56;3.9;;;20.2;;
74483;SDS011;62942;52.462;10.846;2023-02-01T03:21:57;4.1;;;18.6;;
74483;SDS011;62942;52.462;10.846;2023-02-01T03:23:06;3.6;;;16.5;;
74483;SDS011;62942;52.462;10.846;2023-02-01T03:24:07;3.7;;;18.2;;
74483;SDS011;62942;52.462;10.846;2023-02-01T03:25:07;3.8;;;17.9;;
74483;SDS011;62942;52.462;10.846;2023-02-01T03:26:17;3.7;;;18.1;;
74483;SDS011;62942;52.462;10.846;2023-02-01T03:27:17;3.3;;;16.3;;
74483;SDS011;62942;52.462;10.846;2023-02-01T03:28:27;3.6;;;17.6;;
74483;SDS011;62942;52.462;10.846;2023-02-01T03:29:27;4;;;19.1;;
74483;SDS011;62942;52.462;10.846;2023-02-01T03:30:37;4;;;20.2;;
74483;SDS011;62942;52.462;10.846;2023-02-01T03:31:36;4;;;18.8;;
74483;SDS011;62942;52.462;10.846;2023-02-01T03:32:36;3.6;;;18.7;;
74483;SDS011;62942;52.462;10.846;2023-02-01T03:33:46;3.4;;;17.8;;
74483;SDS011;62942;52.462;10.846;2023-02-01T03:34:46;4;;;19.7;;
74483;SDS011;62942;52.462;10.846;2023-02-01T03:35:59;4;;;19.5;;
74483;SDS011;62942;52.462;10.846;2023-02-01T03:36:57;3.6;;;18.5;;
74483;SDS011;62942;52.462;10.846;2023-02-01T03:38:08;4.2;;;21.5;;
74483;SDS011;62942;52.462;10.846;2023-02-01T03:39:07;3.8;;;19.3;;
74483;SDS011;62942;52.462;10.846;2023-02-01T03:40:16;4.2;;;20.1;;
74483;SDS011;62942;52.462;10.846;2023-02-01T03:41:17;4.1;;;17.3;;
74483;SDS011;62942;52.462;10.846;2023-02-01T03:42:27;3.9;;;19.1;;
74483;SDS011;62942;52.462;10.846;2023-02-01T03:43:27;3.7;;;17.1;;
74483;SDS011;62942;52.462;10.846;2023-02-01T03:44:28;4.2;;;20.2;;
74483;SDS011;62942;52.462;10.846;2023-02-01T03:45:37;3.6;;;19.1;;
74483;SDS011;62942;52.462;10.846;2023-02-01T03:46:37;3.6;;;18.5;;
74483;SDS011;62942;52.462;10.846;2023-02-01T03:47:47;3.9;;;18;;
74483;SDS011;62942;52.462;10.846;2023-02-01T03:48:46;3.7;;;19.3;;
74483;SDS011;62942;52.462;10.846;2023-02-01T03:49:47;4.2;;;18.3;;
74483;SDS011;62942;52.462;10.846;2023-02-01T03:50:57;3.7;;;17.6;;
74483;SDS011;62942;52.462;10.846;2023-02-01T03:51:57;3.7;;;18.2;;
74483;SDS011;62942;52.462;10.846;2023-02-01T03:53:07;3.6;;;18.5;;
74483;SDS011;62942;52.462;10.846;2023-02-01T03:54:06;4.1;;;19;;
74483;SDS011;62942;52.462;10.846;2023-02-01T03:55:17;3.6;;;17.4;;
74483;SDS011;62942;52.462;10.846;2023-02-01T03:56:26;3.5;;;16.1;;
74483;SDS011;62942;52.462;10.846;2023-02-01T03:57:37;3.5;;;16.4;;
74483;SDS011;62942;52.462;10.846;2023-02-01T03:58:36;3.6;;;17.8;;
74483;SDS011;62942;52.462;10.846;2023-02-01T03:59:38;3.7;;;18.6;;
74483;SDS011;62942;52.462;10.846;2023-02-01T04:00:36;3.7;;;17.9;;
74483;SDS011;62942;52.462;10.846;2023-02-01T04:01:46;3.5;;;18.6;;
74483;SDS011;62942;52.462;10.846;2023-02-01T04:02:56;3.7;;;18.9;;
74483;SDS011;62942;52.462;10.846;2023-02-01T04:04:06;3.9;;;19.5;;
74483;SDS011;62942;52.462;10.846;2023-02-01T04:05:06;3.6;;;18;;
74483;SDS011;62942;52.462;10.846;2023-02-01T04:06:06;3.7;;;20.1;;
74483;SDS011;62942;52.462;10.846;2023-02-01T04:07:06;3.5;;;18.5;;
74483;SDS011;62942;52.462;10.846;2023-02-01T04:08:16;3.8;;;20;;
74483;SDS011;62942;52.462;10.846;2023-02-01T04:09:16;3.8;;;18.8;;
74483;SDS011;62942;52.462;10.846;2023-02-01T04:10:26;3.9;;;18.5;;
74483;SDS011;62942;52.462;10.846;2023-02-01T04:11:36;3.9;;;22.1;;
74483;SDS011;62942;52.462;10.846;2023-02-01T04:12:46;3.8;;;21.3;;
74483;SDS011;62942;52.462;10.846;2023-02-01T04:13:46;3.7;;;20.8;;
74483;SDS011;62942;52.462;10.846;2023-02-01T04:14:56;3.6;;;18;;
74483;SDS011;62942;52.462;10.846;2023-02-01T04:15:56;3.9;;;20.1;;
74483;SDS011;62942;52.462;10.846;2023-02-01T04:17:06;3.6;;;18.4;;
74483;SDS011;62942;52.462;10.846;2023-02-01T04:18:16;3.8;;;20.7;;
74483;SDS011;62942;52.462;10.846;2023-02-01T04:19:26;3.4;;;16.2;;
74483;SDS011;62942;52.462;10.846;2023-02-01T04:20:26;3.6;;;17.2;;
74483;SDS011;62942;52.462;10.846;2023-02-01T04:21:36;3.8;;;17.1;;
74483;SDS011;62942;52.462;10.846;2023-02-01T04:22:46;3.8;;;17.6;;
74483;SDS011;62942;52.462;10.846;2023-02-01T04:23:46;3.5;;;15.8;;
74483;SDS011;62942;52.462;10.846;2023-02-01T04:24:56;3.8;;;19.1;;
74483;SDS011;62942;52.462;10.846;2023-02-01T04:25:58;3.7;;;19.3;;
74483;SDS011;62942;52.462;10.846;2023-02-01T04:27:06;3.9;;;17;;
74483;SDS011;62942;52.462;10.846;2023-02-01T04:28:06;3.9;;;19.5;;
74483;SDS011;62942;52.462;10.846;2023-02-01T04:29:16;3.9;;;18.2;;
74483;SDS011;62942;52.462;10.846;2023-02-01T04:30:17;3.8;;;18.9;;
74483;SDS011;62942;52.462;10.846;2023-02-01T04:31:26;3.9;;;18.8;;
74483;SDS011;62942;52.462;10.846;2023-02-01T04:32:26;3.9;;;16.6;;
74483;SDS011;62942;52.462;10.846;2023-02-01T04:33:26;4.1;;;16.7;;
74483;SDS011;62942;52.462;10.846;2023-02-01T04:34:26;3.4;;;16.3;;
74483;SDS011;62942;52.462;10.846;2023-02-01T04:35:36;3.5;;;18;;
74483;SDS011;62942;52.462;10.846;2023-02-01T04:36:36;4;;;21.4;;
74483;SDS011;62942;52.462;10.846;2023-02-01T04:37:36;3.7;;;17.5;;
74483;SDS011;62942;52.462;10.846;2023-02-01T04:38:46;3.5;;;15.6;;
74483;SDS011;62942;52.462;10.846;2023-02-01T04:39:46;3.7;;;17;;
74483;SDS011;62942;52.462;10.846;2023-02-01T04:40:47;4.2;;;19.3;;
74483;SDS011;62942;52.462;10.846;2023-02-01T04:41:46;3.5;;;16.3;;
74483;SDS011;62942;52.462;10.846;2023-02-01T04:42:56;4;;;19.8;;
74483;SDS011;62942;52.462;10.846;2023-02-01T04:43:56;3.7;;;18.7;;
74483;SDS011;62942;52.462;10.846;2023-02-01T04:45:06;3.6;;;18.2;;
74483;SDS011;62942;52.462;10.846;2023-02-01T04:46:06;3.8;;;17.5;;
74483;SDS011;62942;52.462;10.846;2023-02-01T04:47:06;3.9;;;18;;
74483;SDS011;62942;52.462;10.846;2023-02-01T04:48:08;4.1;;;19.3;;
74483;SDS011;62942;52.462;10.846;2023-02-01T04:49:16;3.8;;;18.1;;
74483;SDS011;62942;52.462;10.846;2023-02-01T04:50:16;4;;;18.6;;
74483;SDS011;62942;52.462;10.846;2023-02-01T04:51:26;3.8;;;16.4;;
74483;SDS011;62942;52.462;10.846;2023-02-01T04:52:26;3.9;;;19;;
74483;SDS011;62942;52.462;10.846;2023-02-01T04:53:26;4.3;;;22.7;;
74483;SDS011;62942;52.462;10.846;2023-02-01T04:54:36;3.8;;;17.8;;
74483;SDS011;62942;52.462;10.846;2023-02-01T04:55:36;3.8;;;16.2;;
74483;SDS011;62942;52.462;10.846;2023-02-01T04:56:46;4.2;;;18.5;;
74483;SDS011;62942;52.462;10.846;2023-02-01T04:57:46;3.8;;;18.1;;
74483;SDS011;62942;52.462;10.846;2023-02-01T04:58:46;4.2;;;17.1;;
74483;SDS011;62942;52.462;10.846;2023-02-01T04:59:56;4;;;18.2;;
74483;SDS011;62942;52.462;10.846;2023-02-01T05:00:56;3.7;;;16.3;;
74483;SDS011;62942;52.462;10.846;2023-02-01T05:02:06;3.5;;;14.3;;
74483;SDS011;62942;52.462;10.846;2023-02-01T05:03:06;3.5;;;15.2;;
74483;SDS011;62942;52.462;10.846;2023-02-01T05:04:06;4;;;21.5;;
74483;SDS011;62942;52.462;10.846;2023-02-01T05:05:06;3.9;;;19.3;;
74483;SDS011;62942;52.462;10.846;2023-02-01T05:06:16;4;;;19.5;;
74483;SDS011;62942;52.462;10.846;2023-02-01T05:07:26;3.8;;;18.6;;
74483;SDS011;62942;52.462;10.846;2023-02-01T05:08:26;3.9;;;21.1;;
74483;SDS011;62942;52.462;10.846;2023-02-01T05:09:26;3.7;;;18.1;;
74483;SDS011;62942;52.462;10.846;2023-02-01T05:10:36;3.9;;;17.4;;
74483;SDS011;62942;52.462;10.846;2023-02-01T05:11:36;3.8;;;18;;
74483;SDS011;62942;52.462;10.846;2023-02-01T05:12:36;3.7;;;17.1;;
74483;SDS011;62942;52.462;10.846;2023-02-01T05:13:46;3.7;;;17.1;;
74483;SDS011;62942;52.462;10.846;2023-02-01T05:14:56;4;;;18.1;;
74483;SDS011;62942;52.462;10.846;2023-02-01T05:15:56;4.1;;;21.5;;
74483;SDS011;62942;52.462;10.846;2023-02-01T05:16:56;4.2;;;18.6;;
74483;SDS011;62942;52.462;10.846;2023-02-01T05:18:06;3.9;;;19.9;;
74483;SDS011;62942;52.462;10.846;2023-02-01T05:19:16;3.7;;;18.2;;
74483;SDS011;62942;52.462;10.846;2023-02-01T05:20:26;4;;;18.7;;
74483;SDS011;62942;52.462;10.846;2023-02-01T05:21:26;4.2;;;19.7;;
74483;SDS011;62942;52.462;10.846;2023-02-01T05:22:26;3.5;;;17.4;;
74483;SDS011;62942;52.462;10.846;2023-02-01T05:23:26;3.9;;;16.8;;
74483;SDS011;62942;52.462;10.846;2023-02-01T05:24:36;4;;;21.7;;
74483;SDS011;62942;52.462;10.846;2023-02-01T05:25:36;3.9;;;17.5;;
74483;SDS011;62942;52.462;10.846;2023-02-01T05:26:36;4.1;;;19.3;;
74483;SDS011;62942;52.462;10.846;2023-02-01T05:27:46;3.9;;;19.1;;
74483;SDS011;62942;52.462;10.846;2023-02-01T05:28:46;3.9;;;21.4;;
74483;SDS011;62942;52.462;10.846;2023-02-01T05:29:46;4.1;;;20.8;;
74483;SDS011;62942;52.462;10.846;2023-02-01T05:30:46;3.9;;;19.2;;
74483;SDS011;62942;52.462;10.846;2023-02-01T05:31:56;4;;;20.7;;
74483;SDS011;62942;52.462;10.846;2023-02-01T05:32:56;4;;;16.5;;
74483;SDS011;62942;52.462;10.846;2023-02-01T05:34:06;4.1;;;17.5;;
74483;SDS011;62942;52.462;10.846;2023-02-01T05:35:06;3.8;;;18.5;;
74483;SDS011;62942;52.462;10.846;2023-02-01T05:36:16;4.6;;;20.3;;
74483;SDS011;62942;52.462;10.846;2023-02-01T05:37:16;4.4;;;22.5;;
74483;SDS011;62942;52.462;10.846;2023-02-01T05:38:16;4.2;;;22;;
74483;SDS011;62942;52.462;10.846;2023-02-01T05:39:16;4;;;19.9;;
74483;SDS011;62942;52.462;10.846;2023-02-01T05:40:16;3.7;;;15.7;;
74483;SDS011;62942;52.462;10.846;2023-02-01T05:41:16;3.9;;;16.1;;
74483;SDS011;62942;52.462;10.846;2023-02-01T05:42:26;3.9;;;16.5;;
74483;SDS011;62942;52.462;10.846;2023-02-01T05:43:26;4;;;17.3;;
74483;SDS011;62942;52.462;10.846;2023-02-01T05:44:26;4.7;;;19.3;;
74483;SDS011;62942;52.462;10.846;2023-02-01T05:45:36;3.8;;;15.9;;
74483;SDS011;62942;52.462;10.846;2023-02-01T05:46:36;3.9;;;19.4;;
74483;SDS011;62942;52.462;10.846;2023-02-01T05:47:36;4.2;;;18.2;;
74483;SDS011;62942;52.462;10.846;2023-02-01T05:48:36;4.6;;;18.6;;
74483;SDS011;62942;52.462;10.846;2023-02-01T05:49:46;4.2;;;17.6;;
74483;SDS011;62942;52.462;10.846;2023-02-01T05:50:46;4.8;;;21;;
74483;SDS011;62942;52.462;10.846;2023-02-01T05:51:56;4.5;;;20.3;;
74483;SDS011;62942;52.462;10.846;2023-02-01T05:53:06;4.7;;;19.7;;
74483;SDS011;62942;52.462;10.846;2023-02-01T05:54:16;4.5;;;20;;
74483;SDS011;62942;52.462;10.846;2023-02-01T05:55:16;4.7;;;19.1;;
74483;SDS011;62942;52.462;10.846;2023-02-01T05:56:16;4.8;;;20.4;;
74483;SDS011;62942;52.462;10.846;2023-02-01T05:57:26;4.8;;;20.7;;
74483;SDS011;62942;52.462;10.846;2023-02-01T05:58:26;4.9;;;23.2;;
74483;SDS011;62942;52.462;10.846;2023-02-01T05:59:36;5;;;22;;
74483;SDS011;62942;52.462;10.846;2023-02-01T06:00:46;4.7;;;17.8;;
74483;SDS011;62942;52.462;10.846;2023-02-01T06:01:56;4.7;;;20.4;;
74483;SDS011;62942;52.462;10.846;2023-02-01T06:03:07;4.6;;;20;;
74483;SDS011;62942;52.462;10.846;2023-02-01T06:04:06;4.6;;;20.6;;
74483;SDS011;62942;52.462;10.846;2023-02-01T06:05:06;4.5;;;17.8;;
74483;SDS011;62942;52.462;10.846;2023-02-01T06:06:16;4.8;;;19.4;;
74483;SDS011;62942;52.462;10.846;2023-02-01T06:07:26;4.4;;;16.8;;
74483;SDS011;62942;52.462;10.846;2023-02-01T06:08:26;4.5;;;19;;
74483;SDS011;62942;52.462;10.846;2023-02-01T06:09:36;4.6;;;19.1;;
74483;SDS011;62942;52.462;10.846;2023-02-01T06:10:46;4.6;;;17.8;;
74483;SDS011;62942;52.462;10.846;2023-02-01T06:11:46;4.5;;;20.7;;
74483;SDS011;62942;52.462;10.846;2023-02-01T06:12:46;4.6;;;17.2;;
74483;SDS011;62942;52.462;10.846;2023-02-01T06:13:56;4.5;;;19.5;;
74483;SDS011;62942;52.462;10.846;2023-02-01T06:14:56;4.6;;;16.2;;
74483;SDS011;62942;52.462;10.846;2023-02-01T06:16:06;4.4;;;15.6;;
74483;SDS011;62942;52.462;10.846;2023-02-01T06:17:16;4.5;;;19.7;;
74483;SDS011;62942;52.462;10.846;2023-02-01T06:18:26;4.4;;;17.7;;
74483;SDS011;62942;52.462;10.846;2023-02-01T06:19:36;4.4;;;17.1;;
74483;SDS011;62942;52.462;10.846;2023-02-01T06:20:36;4;;;14.1;;
74483;SDS011;62942;52.462;10.846;2023-02-01T06:21:36;4.3;;;17.1;;
74483;SDS011;62942;52.462;10.846;2023-02-01T06:22:46;4.2;;;15.1;;
74483;SDS011;62942;52.462;10.846;2023-02-01T06:23:46;4.1;;;14.7;;
74483;SDS011;62942;52.462;10.846;2023-02-01T06:24:46;4.7;;;18.4;;
74483;SDS011;62942;52.462;10.846;2023-02-01T06:25:57;4.2;;;17.6;;
74483;SDS011;62942;52.462;10.846;2023-02-01T06:26:56;4.5;;;15;;
74483;SDS011;62942;52.462;10.846;2023-02-01T06:28:06;4.3;;;16;;
74483;SDS011;62942;52.462;10.846;2023-02-01T06:29:16;4.1;;;16.5;;
74483;SDS011;62942;52.462;10.846;2023-02-01T06:30:26;4.7;;;15.7;;
74483;SDS011;62942;52.462;10.846;2023-02-01T06:31:36;5.5;;;22.2;;
74483;SDS011;62942;52.462;10.846;2023-02-01T06:32:49;5.3;;;22.4;;
74483;SDS011;62942;52.462;10.846;2023-02-01T06:33:46;5;;;20.8;;
74483;SDS011;62942;52.462;10.846;2023-02-01T06:34:46;7.8;;;42.7;;
74483;SDS011;62942;52.462;10.846;2023-02-01T06:35:56;5.4;;;21.7;;
74483;SDS011;62942;52.462;10.846;2023-02-01T06:36:56;5.7;;;21.7;;